Airfield :
LOGIN :

Register | Disclaimer

   EN    FR    IT 

 










Legend :    VFR   Marginal VFR   IFR   Intensive IFR   Very Intensive IFR
Visi :
Ceiling :
>= 8 km
>= 3000ft
5 to 8 km
1000 to 3000 ft
1500m to 5 km
500 to 1000 ft
800 to 1500m
200 to 500 ft
< 800m
< 200 ft
Symbols :   Thunderstorms  Fog  Heavy snow  Heavy precipitations  Wind > 20 kt
SIGMETs :     Misc.  Thunderstorms  Icing  Turbulence  Mountain Waves  Volcanic Ashes






- Airport Elevation : 505 ft
- IATA code : SXB


LFST - Strasbourg

CURRENT METAR :
  • 021800Z AUTO 31005KT CAVOK 22/12 Q1014 NOSIG

EXPIRED METARs :
  • 021730Z AUTO 25005KT CAVOK 23/11 Q1014 NOSIG
  • 021700Z AUTO 25010KT CAVOK 23/11 Q1014 NOSIG
  • 021630Z AUTO 26011KT 230V290 CAVOK 24/11 Q1013 NOSIG
  • 021600Z AUTO 28012KT CAVOK 25/12 Q1013 NOSIG
  • 021530Z AUTO 25014KT 230V290 CAVOK 24/11 Q1013 NOSIG
  • 021500Z AUTO 25014KT 9999 FEW058 BKN140 24/11 Q1013 NOSIG

TAF TAF LFST
Valid from the 02 at 18:00 until the 03 at 18:00 UTC


021700Z 0218/0318 28010KT CAVOK
BECMG 0221/0224 VRB03KT



MET'MAP, your aeronautical weather chart ! - Copyright ORBIFLY December 2007 - Disclaimer

ORBIFLY MET'MAP TEAM :

Programming & Development : Alexandra Zaïnal
Concept & original design : Baudouin d'Aumeries
Assistance for programming : Marc-Olivier Méhu
Technical & hardware support : Manuel Goepfert

Contact : metmap@orbifly.com




SOURCES & CREDITS :

   NOAA